Base de Aviacao de Taubate Airport


Codes: SBTA/QHP
Name: Base de Aviacao de Taubate Airport
City: Taubate
Country: Brazil
Elevation: 1908 ft.

Photos at Base de Aviacao de Taubate Airport


   Photos courtesy of SpottingLog. You can add your own sightings and photos by signing up for a free trial today.



No photos found.

Weather at Base de Aviacao de Taubate Airport


Time (UTC)DescriptionTempratureWindCloud coverageVisibilityPressureHumidity
13-Jun-2024 03:00Clear Sky14°C2 mph, E0%10000m1021hPa100%
13-Jun-2024 06:00Clear Sky13°C2 mph, NE0%10000m1021hPa93%
13-Jun-2024 09:00Clear Sky12°C4 mph, NE0%10000m1021hPa86%
13-Jun-2024 12:00Clear Sky18°C4 mph, NE0%10000m1022hPa51%
13-Jun-2024 15:00Clear Sky26°C2 mph, E0%10000m1020hPa32%
13-Jun-2024 18:00Clear Sky27°C2 mph, E0%10000m1016hPa29%
13-Jun-2024 21:00Clear Sky18°C0 mph, NW0%10000m1017hPa54%
14-Jun-2024 00:00Clear Sky15°C2 mph, NE0%10000m1020hPa66%
14-Jun-2024 03:00Clear Sky13°C2 mph, NE3%10000m1021hPa75%
14-Jun-2024 06:00Scattered Clouds12°C4 mph, E38%10000m1020hPa75%
14-Jun-2024 09:00Clear Sky11°C4 mph, NE3%10000m1021hPa76%
14-Jun-2024 12:00Clear Sky19°C4 mph, NE3%10000m1022hPa49%
14-Jun-2024 15:00Clear Sky26°C4 mph, NE0%10000m1020hPa29%
14-Jun-2024 18:00Clear Sky28°C0 mph, E0%10000m1016hPa27%
14-Jun-2024 21:00Clear Sky19°C2 mph, SW0%10000m1018hPa54%
15-Jun-2024 00:00Clear Sky15°C2 mph, NE0%10000m1021hPa65%
15-Jun-2024 03:00Clear Sky14°C4 mph, NE1%10000m1021hPa70%
15-Jun-2024 06:00Clear Sky13°C4 mph, NE0%10000m1021hPa73%
15-Jun-2024 09:00Clear Sky13°C4 mph, E0%10000m1022hPa78%
15-Jun-2024 12:00Clear Sky20°C4 mph, NE0%10000m1024hPa55%
15-Jun-2024 15:00Clear Sky27°C2 mph, NE0%10000m1021hPa37%
15-Jun-2024 18:00Clear Sky29°C0 mph, NW3%10000m1018hPa31%
15-Jun-2024 21:00Clear Sky20°C2 mph, W4%10000m1018hPa57%
16-Jun-2024 00:00Clear Sky16°C4 mph, NE2%10000m1020hPa70%
16-Jun-2024 03:00Clear Sky15°C4 mph, NE0%10000m1020hPa74%
16-Jun-2024 06:00Clear Sky14°C4 mph, E2%10000m1020hPa80%
16-Jun-2024 09:00Scattered Clouds13°C4 mph, E43%10000m1020hPa82%
16-Jun-2024 12:00Scattered Clouds20°C4 mph, NE33%10000m1021hPa54%
16-Jun-2024 15:00Clear Sky28°C4 mph, NE2%10000m1017hPa35%
16-Jun-2024 18:00Clear Sky29°C4 mph, NW2%10000m1015hPa28%
16-Jun-2024 21:00Clear Sky20°C2 mph, NW0%10000m1016hPa54%
17-Jun-2024 00:00Clear Sky17°C4 mph, NE0%10000m1017hPa65%
17-Jun-2024 03:00Clear Sky15°C4 mph, NE1%10000m1017hPa72%
17-Jun-2024 06:00Clear Sky14°C4 mph, NE3%10000m1017hPa78%
17-Jun-2024 09:00Clear Sky13°C4 mph, NE5%10000m1017hPa80%
17-Jun-2024 12:00Clear Sky21°C4 mph, NE5%10000m1018hPa53%
17-Jun-2024 15:00Clear Sky28°C2 mph, NE1%10000m1015hPa32%
17-Jun-2024 18:00Clear Sky30°C2 mph, N3%10000m1012hPa27%
17-Jun-2024 21:00Clear Sky19°C2 mph, NW4%10000m1013hPa50%
18-Jun-2024 00:00Clear Sky16°C4 mph, NE6%10000m1015hPa61%